WetterOnline ( https://www.wetteronline.de )

Wetter aktuell Oschatz

Aktuelles Wetter: Oschatz (152m)

6-stündlich | Neueste Meldungen
Ortszeit Temperatur Wetter
Mi, 24.04. 14:00 21.4° C fast wolkenlos
Mi, 24.04. 8:00 12.3° C wolkig
Mi, 24.04. 2:00 11.3° C wolkig
Di, 23.04. 20:00 14.0° C bedeckt
Di, 23.04. 14:00 17.5° C bewölkt
Di, 23.04. 8:00 9.8° C wolkenlos
Di, 23.04. 2:00 9.2° C wolkenlos
Mo, 22.04. 20:00 13.0° C wolkenlos
Ortszeit Temperatur Wetter
Mi, 24.04. 14:00 21.4° C fast wolkenlos
Mi, 24.04. 13:40 21.3° C wolkenlos
Mi, 24.04. 13:30 20.8° C wolkenlos
Mi, 24.04. 13:20 20.8° C wolkenlos
Mi, 24.04. 13:10 20.9° C wolkenlos
Mi, 24.04. 13:00 20.4° C fast wolkenlos
Mi, 24.04. 12:50 20.4° C fast wolkenlos
Mi, 24.04. 12:30 19.4° C fast wolkenlos
Mi, 24.04. 12:00 19.3° C wolkenlos
Mi, 24.04. 11:30 17.7° C fast wolkenlos
Mi, 24.04. 11:00 17.3° C leicht bewölkt
Mi, 24.04. 10:30 16.4° C leicht bewölkt
Ortszeit Relative Feuchte Sichtweite
Mi, 24.04. 14:00 42% 70 km
Mi, 24.04. 8:00 75% 9 km
Mi, 24.04. 2:00 77% 15 km
Di, 23.04. 20:00 59% 26 km
Di, 23.04. 14:00 46% 35 km
Di, 23.04. 8:00 60% 26 km
Di, 23.04. 2:00 73% 15 km
Mo, 22.04. 20:00 46% 45 km
Ortszeit Relative Feuchte Sichtweite
Mi, 24.04. 14:00 42% 70 km
Mi, 24.04. 13:40 44% -
Mi, 24.04. 13:30 50% 21 km
Mi, 24.04. 13:20 50% -
Mi, 24.04. 13:10 50% -
Mi, 24.04. 13:00 48% 24 km
Mi, 24.04. 12:50 48% -
Mi, 24.04. 12:30 49% 23 km
Mi, 24.04. 12:00 52% 24 km
Mi, 24.04. 11:30 53% 20 km
Mi, 24.04. 11:00 56% 17 km
Mi, 24.04. 10:30 58% 20 km
Ortszeit Niederschlagsmenge Niederschlagsart
Mi, 24.04. 14:00 0.0 l/m2 in 6 Std. -
Mi, 24.04. 8:00 0.0 l/m2 in 12 Std. -
Mi, 24.04. 2:00 0.0 l/m2 in 6 Std. -
Di, 23.04. 20:00 0.0 l/m2 in 12 Std. -
Di, 23.04. 14:00 0.0 l/m2 in 6 Std. -
Di, 23.04. 8:00 0.0 l/m2 in 12 Std. -
Di, 23.04. 2:00 0.0 l/m2 in 6 Std. -
Mo, 22.04. 20:00 0.0 l/m2 in 12 Std. -
Ortszeit Niederschlagsmenge Niederschlagsart
Mi, 24.04. 14:00 0.0 l/m2 in 1 Std. -
Mi, 24.04. 13:40 keine Meldung -
Mi, 24.04. 13:30 0.0 l/m2 in 1 Std. -
Mi, 24.04. 13:20 keine Meldung -
Mi, 24.04. 13:10 keine Meldung -
Mi, 24.04. 13:00 0.0 l/m2 in 1 Std. -
Mi, 24.04. 12:50 keine Meldung -
Mi, 24.04. 12:30 0.0 l/m2 in 1 Std. -
Mi, 24.04. 12:00 0.0 l/m2 in 1 Std. -
Mi, 24.04. 11:30 0.0 l/m2 in 1 Std. -
Mi, 24.04. 11:00 0.0 l/m2 in 1 Std. -
Mi, 24.04. 10:30 0.0 l/m2 in 1 Std. -
Ortszeit Stärke Spitze Richtung
km/h Bft. km/h Grad Sektor
Mi, 24.04. 14:00 15 3 30 150° SO
Mi, 24.04. 8:00 15 3 28 110° O
Mi, 24.04. 2:00 18 3 47 110° O
Di, 23.04. 20:00 29 5 58 130° SO
Di, 23.04. 14:00 26 4 57 110° O
Di, 23.04. 8:00 14 3 32 80° O
Di, 23.04. 2:00 11 2 29 80° O
Mo, 22.04. 20:00 17 3 48 90° O
Ortszeit Stärke Spitze Richtung
km/h Bft. km/h Grad Sektor
Mi, 24.04. 14:00 15 3 30 150° SO
Mi, 24.04. 13:40 14 3 - 150° SO
Mi, 24.04. 13:30 17 3 30 120° SO
Mi, 24.04. 13:20 17 3 - 120° SO
Mi, 24.04. 13:10 15 3 - 130° SO
Mi, 24.04. 13:00 14 3 25 140° SO
Mi, 24.04. 12:50 14 3 - 140° SO
Mi, 24.04. 12:30 14 3 25 140° SO
Mi, 24.04. 12:00 13 3 30 130° SO
Mi, 24.04. 11:30 15 3 30 140° SO
Mi, 24.04. 11:00 14 3 29 140° SO
Mi, 24.04. 10:30 14 3 29 130° SO
Ortszeit Untergrenze Bedeckung Gattung
total tief tief mittel hoch
Mi, 24.04. 14:00 8700 m 1/8 0/8 - - -
Mi, 24.04. 8:00 5400 m 8/8 2/8 - - -
Mi, 24.04. 2:00 720 m 8/8 2/8 - - -
Di, 23.04. 20:00 1170 m 8/8 8/8 - - -
Di, 23.04. 14:00 1500 m 7/8 7/8 - - -
Di, 23.04. 8:00 - 0/8 0/8 - - -
Di, 23.04. 2:00 - 0/8 0/8 - - -
Mo, 22.04. 20:00 - 0/8 0/8 - - -
Ortszeit Bedeckungsgrad in Achtel und Wolkenuntergrenze
Mi, 24.04. 14:00 1(8700m)
Mi, 24.04. 13:40 keine Wolken
Mi, 24.04. 13:30 keine Wolken
Mi, 24.04. 13:20 keine Wolken
Mi, 24.04. 13:10 keine Wolken
Mi, 24.04. 13:00 1(7500m)
Mi, 24.04. 12:50 1(7500m)
Mi, 24.04. 12:30 1(9000m)
Mi, 24.04. 12:00 keine Wolken
Mi, 24.04. 11:30 1(7200m)
Mi, 24.04. 11:00 2(7500m) 3(9000m)
Mi, 24.04. 10:30 2(6300m) 3(9000m)
Ortszeit Luftdruck NN (hPa) Tendenz (hPa in 3 Std.)
Mi, 24.04. 14:00 1006 - 0,1
Mi, 24.04. 8:00 1006 + 0,4
Mi, 24.04. 2:00 1006 - 0,6
Di, 23.04. 20:00 1006 + 0,4
Di, 23.04. 14:00 1006 - 1,1
Di, 23.04. 8:00 1010 - 0,9
Di, 23.04. 2:00 1012 - 1,3
Mo, 22.04. 20:00 1014 - 0,1
Ortszeit Luftdruck NN (hPa) Tendenz (hPa in 3 Std.)
Mi, 24.04. 14:00 1006 - 0,1
Mi, 24.04. 13:40 1006 keine Meldung
Mi, 24.04. 13:30 1006 + 0,1
Mi, 24.04. 13:20 1006 keine Meldung
Mi, 24.04. 13:10 1006 keine Meldung
Mi, 24.04. 13:00 1006 + 0,3
Mi, 24.04. 12:50 1006 keine Meldung
Mi, 24.04. 12:30 1006 + 0,5
Mi, 24.04. 12:00 1007 + 0,7
Mi, 24.04. 11:30 1007 + 0,9
Mi, 24.04. 11:00 1007 + 1,1
Mi, 24.04. 10:30 1007 + 0,9
Ortszeit Schneehöhe (cm)
Mi, 24.04. 14:00 -
Mi, 24.04. 8:00 0
Mi, 24.04. 2:00 0
Di, 23.04. 20:00 0
Di, 23.04. 14:00 0
Di, 23.04. 8:00 0
Di, 23.04. 2:00 0
Mo, 22.04. 20:00 0
Ortszeit Schneehöhe (cm)
Mi, 24.04. 14:00 -
Mi, 24.04. 13:40 0
Mi, 24.04. 13:30 -
Mi, 24.04. 13:20 -
Mi, 24.04. 13:10 -
Mi, 24.04. 13:00 0
Mi, 24.04. 12:50 -
Mi, 24.04. 12:30 0
Mi, 24.04. 12:00 0
Mi, 24.04. 11:30 0
Mi, 24.04. 11:00 0
Mi, 24.04. 10:30 0
Link zu dieser Seite / Seite empfehlen

Das Wetter in ...